Time;durP1;ratioP1;P1;durP2;ratioP2;P2;SDS_P1;SDS_P2;PMS_P1;PMS_P2;Temp;Humidity;BMP_temperature;BMP_pressure;BME280_temperature;BME280_humidity;BME280_pressure;Samples;Min_cycle;Max_cycle;Signal;HPM_P1;HPM_P2
2022/04/13 00:02:15;;;;;;;12.57;8.77;;;12.30;54.20;;;;;;5096449;28;20227;-64
2022/04/13 00:04:42;;;;;;;9.10;7.95;;;12.20;54.40;;;;;;5091947;28;20222;-64
2022/04/13 00:07:09;;;;;;;12.45;8.05;;;12.20;54.50;;;;;;5089067;28;20227;-65
2022/04/13 00:09:37;;;;;;;10.50;9.07;;;12.20;54.60;;;;;;5070558;27;20218;-63
2022/04/13 00:12:05;;;;;;;9.02;8.07;;;12.10;54.60;;;;;;5090306;28;20235;-63
2022/04/13 00:14:32;;;;;;;12.50;9.38;;;12.00;54.70;;;;;;5090700;28;20223;-63
2022/04/13 00:16:59;;;;;;;10.93;7.80;;;12.00;54.90;;;;;;5081000;28;20223;-64
2022/04/13 00:19:26;;;;;;;8.73;7.72;;;12.00;54.90;;;;;;5071884;27;20223;-64
2022/04/13 00:21:53;;;;;;;11.70;8.95;;;12.00;55.00;;;;;;5088003;28;20223;-65
2022/04/13 00:24:20;;;;;;;10.30;8.88;;;12.00;55.00;;;;;;5094306;28;20229;-65
2022/04/13 00:26:48;;;;;;;21.25;10.85;;;12.00;55.00;;;;;;5090219;28;20223;-64
2022/04/13 00:29:15;;;;;;;9.35;8.45;;;11.90;55.30;;;;;;5079063;28;20228;-64
2022/04/13 00:31:41;;;;;;;9.55;8.55;;;11.90;55.10;;;;;;5068174;27;20629;-62
2022/04/13 00:34:08;;;;;;;13.38;8.38;;;11.90;55.30;;;;;;5070352;27;20567;-64
2022/04/13 00:36:35;;;;;;;11.05;9.35;;;11.90;55.40;;;;;;5086009;27;20219;-64
2022/04/13 00:39:02;;;;;;;13.98;12.18;;;11.80;55.40;;;;;;5092717;28;20219;-64
2022/04/13 00:41:29;;;;;;;9.00;8.10;;;11.90;55.60;;;;;;5106579;28;20226;-64
2022/04/13 00:44:08;;;;;;;9.50;8.50;;;11.90;55.60;;;;;;5088786;28;20216;-64
2022/04/13 00:46:35;;;;;;;9.73;8.75;;;11.80;55.70;;;;;;5101242;28;20218;-64
2022/04/13 00:49:04;;;;;;;9.85;8.75;;;11.80;55.80;;;;;;5091216;28;20465;-64
2022/04/13 00:51:31;;;;;;;11.32;8.75;;;11.70;55.60;;;;;;5098205;28;20313;-64
2022/04/13 00:53:59;;;;;;;12.05;9.77;;;11.80;55.90;;;;;;5100954;28;20225;-63
2022/04/13 00:56:27;;;;;;;11.20;8.43;;;11.80;56.00;;;;;;5093802;28;20231;-64
2022/04/13 00:58:55;;;;;;;12.13;9.00;;;11.80;55.90;;;;;;5100879;28;20223;-64
2022/04/13 01:01:26;;;;;;;10.43;9.05;;;11.90;56.10;;;;;;5110301;27;20235;-64
2022/04/13 01:03:54;;;;;;;10.50;8.05;;;11.80;56.00;;;;;;5101768;28;20353;-64
2022/04/13 01:06:21;;;;;;;11.00;8.20;;;11.80;56.10;;;;;;5097714;28;20280;-64
2022/04/13 01:08:51;;;;;;;17.40;13.10;;;11.80;56.10;;;;;;5099178;28;20673;-63
2022/04/13 01:11:18;;;;;;;10.90;9.80;;;11.80;56.30;;;;;;5094530;28;20228;-64
2022/04/13 01:13:45;;;;;;;12.73;9.90;;;11.70;56.40;;;;;;5091068;28;20265;-64
2022/04/13 01:16:12;;;;;;;12.75;10.77;;;11.70;56.60;;;;;;5094760;28;20216;-64
2022/04/13 01:18:41;;;;;;;11.50;10.32;;;11.70;56.60;;;;;;5096696;28;20273;-64
2022/04/13 01:21:12;;;;;;;12.93;10.77;;;11.70;56.60;;;;;;5102906;28;20247;-64
2022/04/13 01:23:41;;;;;;;9.27;8.38;;;11.70;56.70;;;;;;5094424;28;20216;-64
2022/04/13 01:26:10;;;;;;;11.13;9.65;;;11.70;56.80;;;;;;5094339;28;20249;-64
2022/04/13 01:28:40;;;;;;;11.40;10.10;;;11.70;56.90;;;;;;5087556;28;20252;-64
2022/04/13 01:31:07;;;;;;;10.23;9.10;;;11.70;56.90;;;;;;5095877;28;20693;-64
2022/04/13 01:33:36;;;;;;;9.68;8.15;;;11.70;57.00;;;;;;5102249;27;20211;-64
2022/04/13 01:36:03;;;;;;;9.93;8.70;;;11.60;56.90;;;;;;5102846;28;20230;-63
2022/04/13 01:38:30;;;;;;;9.15;8.23;;;11.60;57.00;;;;;;5096031;28;20561;-64
2022/04/13 01:40:59;;;;;;;9.93;9.00;;;11.60;57.10;;;;;;5103160;28;20255;-63
2022/04/13 01:43:26;;;;;;;9.43;8.43;;;11.60;57.30;;;;;;5102157;28;20550;-63
2022/04/13 01:45:53;;;;;;;10.30;8.85;;;11.50;57.20;;;;;;5103007;28;20257;-63
2022/04/13 01:48:20;;;;;;;10.60;9.30;;;11.60;57.40;;;;;;5101443;28;20553;-63
2022/04/13 01:50:47;;;;;;;9.55;7.90;;;11.50;57.40;;;;;;5092991;28;20689;-64
2022/04/13 01:53:14;;;;;;;10.95;9.63;;;11.50;57.50;;;;;;5094212;28;20231;-64
2022/04/13 01:55:42;;;;;;;12.05;9.50;;;11.50;57.60;;;;;;5088827;27;20561;-64
2022/04/13 01:58:10;;;;;;;11.80;9.07;;;11.50;57.80;;;;;;5093720;28;20219;-64
2022/04/13 02:00:37;;;;;;;10.77;8.75;;;11.40;57.80;;;;;;5080280;28;20605;-64
2022/04/13 02:03:04;;;;;;;13.82;9.65;;;11.50;57.90;;;;;;5093228;28;20661;-64
2022/04/13 02:05:31;;;;;;;11.18;7.90;;;11.40;57.90;;;;;;5093824;28;20604;-64
2022/04/13 02:07:58;;;;;;;12.70;10.38;;;11.40;58.00;;;;;;5093276;28;20688;-63
2022/04/13 02:10:25;;;;;;;11.90;10.02;;;11.40;58.10;;;;;;5093576;28;20231;-64
2022/04/13 02:12:52;;;;;;;10.48;9.30;;;11.50;58.10;;;;;;5092971;28;20230;-63
2022/04/13 02:15:20;;;;;;;11.05;9.90;;;11.40;58.10;;;;;;5093683;28;20270;-64
2022/04/13 02:17:47;;;;;;;10.70;9.00;;;11.50;58.30;;;;;;5092800;28;20219;-64
2022/04/13 02:20:14;;;;;;;12.13;9.13;;;11.50;58.30;;;;;;5092766;28;20553;-64
2022/04/13 02:22:41;;;;;;;10.82;9.13;;;11.50;58.30;;;;;;5093383;28;20219;-64
2022/04/13 02:25:09;;;;;;;10.02;8.25;;;11.40;58.40;;;;;;5093079;28;20220;-64
2022/04/13 02:27:35;;;;;;;15.13;10.73;;;11.30;58.40;;;;;;5091801;28;20227;-64
2022/04/13 02:30:02;;;;;;;9.35;8.45;;;11.30;58.60;;;;;;5092751;28;20693;-64
2022/04/13 02:32:31;;;;;;;11.00;8.98;;;11.20;58.70;;;;;;5092394;28;20677;-63
2022/04/13 02:34:57;;;;;;;12.25;8.93;;;11.10;58.70;;;;;;5092996;28;20226;-64
2022/04/13 02:37:24;;;;;;;11.75;8.57;;;11.10;59.00;;;;;;5092922;28;20228;-64
2022/04/13 02:39:51;;;;;;;10.32;9.35;;;11.10;59.10;;;;;;5078938;28;20673;-64
2022/04/13 02:42:18;;;;;;;10.02;8.93;;;11.10;59.20;;;;;;5093248;28;20228;-65
2022/04/13 02:44:45;;;;;;;11.07;9.23;;;11.10;59.30;;;;;;5079602;28;20233;-64
2022/04/13 02:47:12;;;;;;;11.05;9.07;;;11.10;59.40;;;;;;5092588;28;20298;-62
2022/04/13 02:49:43;;;;;;;12.63;9.45;;;11.00;59.40;;;;;;5092805;28;20233;-64
2022/04/13 02:52:09;;;;;;;15.05;12.43;;;11.00;59.50;;;;;;5092340;28;20227;-64
2022/04/13 02:54:38;;;;;;;16.75;12.45;;;11.10;59.60;;;;;;5092987;28;20234;-64
2022/04/13 02:57:05;;;;;;;12.15;9.27;;;11.10;59.70;;;;;;5092254;28;20265;-64
2022/04/13 02:59:32;;;;;;;13.82;11.60;;;11.10;59.50;;;;;;5092592;28;20223;-65
2022/04/13 03:01:59;;;;;;;9.32;8.32;;;11.10;60.30;;;;;;5089739;28;20737;-64
2022/04/13 03:04:26;;;;;;;12.60;8.95;;;11.10;59.60;;;;;;5091834;28;20234;-64
2022/04/13 03:06:55;;;;;;;11.23;10.13;;;11.00;59.70;;;;;;5090688;28;20231;-64
2022/04/13 03:09:22;;;;;;;14.45;11.90;;;11.00;59.70;;;;;;5092196;28;20254;-65
2022/04/13 03:11:48;;;;;;;9.75;8.80;;;11.00;59.80;;;;;;5091790;28;20231;-64
2022/04/13 03:14:15;;;;;;;16.80;12.77;;;10.90;59.80;;;;;;5083484;28;20275;-64
2022/04/13 03:16:42;;;;;;;10.23;9.13;;;10.90;60.00;;;;;;5072275;28;20238;-65
2022/04/13 03:19:09;;;;;;;9.98;8.85;;;10.80;60.30;;;;;;5090146;28;20231;-64
2022/04/13 03:21:36;;;;;;;11.82;9.30;;;10.70;60.60;;;;;;5092787;28;20241;-64
2022/04/13 03:24:04;;;;;;;11.98;10.43;;;10.70;60.70;;;;;;5072970;28;20234;-65
2022/04/13 03:26:31;;;;;;;11.95;9.75;;;10.70;60.80;;;;;;5085277;28;20230;-65
2022/04/13 03:28:58;;;;;;;12.30;10.32;;;10.70;61.00;;;;;;5092260;28;20246;-65
2022/04/13 03:31:25;;;;;;;14.38;9.63;;;10.60;61.00;;;;;;5095094;28;20231;-64
2022/04/13 03:33:51;;;;;;;11.00;9.90;;;10.50;61.30;;;;;;5096237;28;20215;-64
2022/04/13 03:36:19;;;;;;;15.82;10.77;;;10.50;61.50;;;;;;5096543;28;20670;-64
2022/04/13 03:38:46;;;;;;;11.18;9.90;;;10.50;61.70;;;;;;5096803;28;20218;-65
2022/04/13 03:41:14;;;;;;;14.88;9.55;;;10.40;61.70;;;;;;5096153;28;20227;-65
2022/04/13 03:43:41;;;;;;;11.43;9.57;;;10.30;61.90;;;;;;5096527;28;20301;-64
2022/04/13 03:46:08;;;;;;;13.82;10.75;;;10.30;62.20;;;;;;5096292;28;20223;-65
2022/04/13 03:48:35;;;;;;;11.07;9.18;;;10.30;62.20;;;;;;5096551;28;20228;-65
2022/04/13 03:51:02;;;;;;;10.20;9.23;;;10.30;62.20;;;;;;5095755;28;20231;-64
2022/04/13 03:53:29;;;;;;;13.43;9.38;;;10.20;63.40;;;;;;5096743;28;20227;-63
2022/04/13 03:55:55;;;;;;;11.93;10.65;;;10.20;62.70;;;;;;5095997;28;20230;-64
2022/04/13 03:58:24;;;;;;;10.48;9.00;;;10.20;62.60;;;;;;5096152;28;20560;-64
2022/04/13 04:00:50;;;;;;;11.93;10.55;;;10.20;62.90;;;;;;5096514;28;20569;-64
2022/04/13 04:03:17;;;;;;;13.20;10.25;;;10.30;62.90;;;;;;5095975;28;20970;-65
2022/04/13 04:05:44;;;;;;;11.55;9.52;;;10.30;62.80;;;;;;5096293;28;20235;-64
2022/04/13 04:08:11;;;;;;;13.27;9.77;;;10.30;62.90;;;;;;5095740;28;20720;-63
2022/04/13 04:10:38;;;;;;;12.70;9.30;;;10.30;63.00;;;;;;5095871;28;20314;-64
2022/04/13 04:13:05;;;;;;;12.63;10.13;;;10.30;63.00;;;;;;5095834;28;20572;-63
2022/04/13 04:15:34;;;;;;;12.00;9.95;;;10.40;63.00;;;;;;5095937;28;20231;-64
2022/04/13 04:18:01;;;;;;;11.13;10.00;;;10.40;63.20;;;;;;5095468;28;20215;-63
2022/04/13 04:20:28;;;;;;;10.98;8.77;;;10.40;63.00;;;;;;5096118;28;20223;-64
2022/04/13 04:22:55;;;;;;;12.98;10.02;;;10.40;62.80;;;;;;5095533;28;20685;-64
2022/04/13 04:25:22;;;;;;;11.32;9.32;;;10.30;62.70;;;;;;5095715;28;20716;-65
2022/04/13 04:27:49;;;;;;;10.48;9.38;;;10.30;62.90;;;;;;5095702;28;20230;-63
2022/04/13 04:30:19;;;;;;;13.80;10.32;;;10.30;63.10;;;;;;5095235;28;20227;-64
2022/04/13 04:32:47;;;;;;;13.60;10.60;;;10.30;63.20;;;;;;5095543;28;20219;-64
2022/04/13 04:35:14;;;;;;;12.68;10.30;;;10.20;63.30;;;;;;5095448;28;20224;-64
2022/04/13 04:37:41;;;;;;;11.38;9.63;;;10.20;63.40;;;;;;5095521;28;20677;-64
2022/04/13 04:40:09;;;;;;;12.80;9.77;;;10.30;63.30;;;;;;5094924;28;20298;-64
2022/04/13 04:42:45;;;;;;;12.60;9.77;;;10.40;63.30;;;;;;5094760;28;20621;-65
2022/04/13 04:45:13;;;;;;;12.48;9.65;;;10.30;63.10;;;;;;5095033;28;20231;-64
2022/04/13 04:47:40;;;;;;;12.23;10.57;;;10.20;63.30;;;;;;5095324;28;20230;-65
2022/04/13 04:50:10;;;;;;;10.80;9.27;;;10.20;63.50;;;;;;5095010;28;20223;-65
2022/04/13 04:52:41;;;;;;;10.90;9.18;;;10.30;63.60;;;;;;5095271;28;20227;-64
2022/04/13 04:55:08;;;;;;;12.00;10.80;;;10.20;63.40;;;;;;5094712;28;20215;-64
2022/04/13 04:57:35;;;;;;;17.40;9.45;;;10.20;63.60;;;;;;5095159;28;20223;-64
2022/04/13 05:00:06;;;;;;;13.98;10.43;;;10.10;64.00;;;;;;5094789;28;20226;-63
2022/04/13 05:02:33;;;;;;;11.82;10.63;;;10.10;64.00;;;;;;5095008;28;20223;-64
2022/04/13 05:05:00;;;;;;;11.77;9.85;;;10.10;64.00;;;;;;5094569;28;20302;-64
2022/04/13 05:07:28;;;;;;;10.55;9.50;;;10.10;64.00;;;;;;5095177;28;20215;-64
2022/04/13 05:09:55;;;;;;;12.75;10.10;;;10.00;64.10;;;;;;5094752;28;20238;-64
2022/04/13 05:12:21;;;;;;;10.95;9.77;;;10.10;64.30;;;;;;5094615;28;20565;-64
2022/04/13 05:14:48;;;;;;;12.98;9.73;;;10.10;64.40;;;;;;5094842;28;20234;-64
2022/04/13 05:17:16;;;;;;;10.25;9.15;;;10.10;64.50;;;;;;5094248;28;20295;-65
2022/04/13 05:19:43;;;;;;;14.40;9.93;;;10.10;64.50;;;;;;5094768;28;20223;-65
2022/04/13 05:22:09;;;;;;;11.35;10.15;;;10.20;65.00;;;;;;5094298;28;20219;-65
2022/04/13 05:24:37;;;;;;;10.80;9.18;;;10.10;64.50;;;;;;5094757;28;20224;-65
2022/04/13 05:27:08;;;;;;;16.27;10.80;;;10.20;64.70;;;;;;5094157;28;20234;-64
2022/04/13 05:29:35;;;;;;;12.55;9.77;;;10.20;64.80;;;;;;5094421;28;20227;-64
2022/04/13 05:32:03;;;;;;;11.63;9.05;;;10.20;64.70;;;;;;5094069;28;20223;-65
2022/04/13 05:34:30;;;;;;;19.92;13.18;;;10.30;64.50;;;;;;5094898;28;20226;-64
2022/04/13 05:36:56;;;;;;;10.10;8.68;;;10.40;64.70;;;;;;5094480;28;20226;-64
2022/04/13 05:39:24;;;;;;;15.45;11.38;;;10.40;64.50;;;;;;5094071;28;20230;-63
2022/04/13 05:41:52;;;;;;;15.07;11.10;;;10.50;64.70;;;;;;5094446;28;20223;-64
2022/04/13 05:44:18;;;;;;;14.55;11.52;;;10.60;64.80;;;;;;5094026;28;20223;-63
2022/04/13 05:46:45;;;;;;;17.63;11.57;;;10.70;64.70;;;;;;5094293;28;20219;-64
2022/04/13 05:49:13;;;;;;;12.48;11.18;;;10.70;64.30;;;;;;5093949;28;20226;-65
2022/04/13 05:51:40;;;;;;;13.18;10.05;;;10.80;64.40;;;;;;5094145;28;20227;-64
2022/04/13 05:54:07;;;;;;;19.48;10.40;;;10.90;64.10;;;;;;5093841;28;20215;-64
2022/04/13 05:56:34;;;;;;;12.30;8.77;;;11.00;64.10;;;;;;5094061;28;20323;-65
2022/04/13 05:59:02;;;;;;;13.38;10.50;;;11.00;63.70;;;;;;5094066;28;20226;-65
2022/04/13 06:01:29;;;;;;;11.32;9.50;;;11.10;63.60;;;;;;5093681;28;20238;-65
2022/04/13 06:03:55;;;;;;;13.95;10.02;;;11.20;63.60;;;;;;5093983;28;20692;-64
2022/04/13 06:06:25;;;;;;;16.13;10.13;;;11.20;63.40;;;;;;5093588;28;20254;-63
2022/04/13 06:08:52;;;;;;;11.38;9.40;;;11.30;63.40;;;;;;5094154;28;20298;-64
2022/04/13 06:11:19;;;;;;;12.48;9.90;;;11.40;63.40;;;;;;5093342;28;20317;-63
2022/04/13 06:13:45;;;;;;;12.50;11.13;;;11.40;63.20;;;;;;5093869;28;20226;-63
2022/04/13 06:16:14;;;;;;;15.57;10.02;;;11.50;63.20;;;;;;5093424;28;20215;-63
2022/04/13 06:18:40;;;;;;;13.48;10.35;;;11.50;62.90;;;;;;5093504;28;20226;-64
2022/04/13 06:21:08;;;;;;;17.65;11.15;;;11.60;63.00;;;;;;5093124;28;20569;-64
2022/04/13 06:23:35;;;;;;;12.05;10.75;;;11.70;63.70;;;;;;5093500;28;20284;-64
2022/04/13 06:26:01;;;;;;;14.68;10.15;;;11.80;62.90;;;;;;5093576;28;20223;-65
2022/04/13 06:28:31;;;;;;;13.48;10.40;;;11.80;62.70;;;;;;5093128;28;20241;-63
2022/04/13 06:30:58;;;;;;;14.15;9.52;;;11.90;62.30;;;;;;5093328;28;20229;-64
2022/04/13 06:33:26;;;;;;;14.43;10.65;;;12.10;62.30;;;;;;5092886;28;20705;-64
2022/04/13 06:35:53;;;;;;;14.85;10.40;;;12.20;62.00;;;;;;5093360;28;20219;-65
2022/04/13 06:38:20;;;;;;;14.30;9.52;;;12.10;61.50;;;;;;5093033;28;20219;-65
2022/04/13 06:40:46;;;;;;;15.32;10.77;;;12.10;61.40;;;;;;5093090;28;20219;-65
2022/04/13 06:43:14;;;;;;;12.55;10.57;;;12.20;61.70;;;;;;5092791;28;20681;-64
2022/04/13 06:45:41;;;;;;;15.98;10.55;;;12.30;61.80;;;;;;5093520;28;20254;-64
2022/04/13 06:48:11;;;;;;;13.32;9.38;;;12.30;61.80;;;;;;5092582;28;20230;-64
2022/04/13 06:50:39;;;;;;;11.70;9.70;;;12.40;61.70;;;;;;5092697;28;20231;-64
2022/04/13 06:53:06;;;;;;;17.33;9.60;;;12.50;61.40;;;;;;5093102;28;20224;-65
2022/04/13 06:55:33;;;;;;;15.95;10.40;;;12.60;61.40;;;;;;5092633;28;20242;-65
2022/04/13 06:58:00;;;;;;;12.18;9.70;;;12.70;61.40;;;;;;5092957;28;20230;-65
2022/04/13 07:00:26;;;;;;;12.77;9.50;;;12.70;61.20;;;;;;5092717;28;20814;-65
2022/04/13 07:02:57;;;;;;;14.82;10.05;;;12.80;61.00;;;;;;5092843;28;20227;-65
2022/04/13 07:05:24;;;;;;;10.25;9.25;;;12.90;60.60;;;;;;5092193;28;20249;-64
2022/04/13 07:07:52;;;;;;;13.18;10.27;;;13.00;60.40;;;;;;5093016;28;20566;-64
2022/04/13 07:10:19;;;;;;;14.57;10.63;;;13.00;61.00;;;;;;5092370;28;20231;-64
2022/04/13 07:12:46;;;;;;;12.32;10.52;;;13.10;60.10;;;;;;5092995;28;20223;-64
2022/04/13 07:15:14;;;;;;;14.18;9.85;;;13.20;60.00;;;;;;5092160;28;20223;-64
2022/04/13 07:17:40;;;;;;;12.13;9.70;;;13.30;60.00;;;;;;5092683;28;20223;-64
2022/04/13 07:20:08;;;;;;;15.35;10.80;;;13.40;59.90;;;;;;5092806;28;20230;-64
2022/04/13 07:22:43;;;;;;;12.57;8.90;;;13.50;59.60;;;;;;5092410;28;20223;-64
2022/04/13 07:25:11;;;;;;;17.55;11.57;;;13.60;59.50;;;;;;5092703;28;20226;-64
2022/04/13 07:27:38;;;;;;;10.48;9.40;;;13.70;59.10;;;;;;5092509;28;20317;-65
2022/04/13 07:30:06;;;;;;;12.35;9.40;;;13.80;59.00;;;;;;5092714;28;20681;-64
2022/04/13 07:32:33;;;;;;;14.90;10.88;;;13.80;58.70;;;;;;5091924;28;20231;-64
2022/04/13 07:35:00;;;;;;;16.38;11.07;;;13.90;58.60;;;;;;5092820;28;20230;-64
2022/04/13 07:37:27;;;;;;;13.05;9.25;;;14.00;58.50;;;;;;5092375;28;20219;-63
2022/04/13 07:39:54;;;;;;;10.98;9.68;;;14.10;58.40;;;;;;5092596;28;20696;-63
2022/04/13 07:42:23;;;;;;;10.93;9.77;;;14.20;58.20;;;;;;5092209;28;20242;-64
2022/04/13 07:44:50;;;;;;;13.68;10.60;;;14.30;58.20;;;;;;5092469;28;20453;-64
2022/04/13 07:47:18;;;;;;;13.75;9.70;;;14.40;58.00;;;;;;5092133;28;20234;-64
2022/04/13 07:49:45;;;;;;;12.52;9.75;;;14.40;57.60;;;;;;5092665;28;20215;-64
2022/04/13 07:52:12;;;;;;;13.40;9.33;;;14.40;57.30;;;;;;5092354;28;20247;-64
2022/04/13 07:54:39;;;;;;;10.25;8.70;;;14.40;57.20;;;;;;5091820;28;20472;-64
2022/04/13 07:57:06;;;;;;;12.10;9.73;;;14.50;57.30;;;;;;5092188;28;20896;-64
2022/04/13 07:59:34;;;;;;;13.43;10.68;;;14.60;57.10;;;;;;5092110;28;20461;-64
2022/04/13 08:02:02;;;;;;;12.70;9.73;;;14.70;57.10;;;;;;5092350;28;20692;-64
2022/04/13 08:04:29;;;;;;;13.60;9.27;;;14.80;57.10;;;;;;5092153;28;20515;-64
2022/04/13 08:06:55;;;;;;;15.13;9.20;;;14.80;57.10;;;;;;5092413;28;20473;-64
2022/04/13 08:09:22;;;;;;;11.30;9.03;;;15.00;57.20;;;;;;5092026;28;20477;-64
2022/04/13 08:11:52;;;;;;;12.23;10.03;;;15.10;57.20;;;;;;5092180;28;20469;-63
2022/04/13 08:14:19;;;;;;;15.33;12.00;;;15.20;56.70;;;;;;5091787;28;20868;-63
2022/04/13 08:16:47;;;;;;;11.77;9.00;;;15.30;56.60;;;;;;5092147;28;20461;-64
2022/04/13 08:19:14;;;;;;;13.00;10.53;;;15.40;56.50;;;;;;5096000;28;20796;-64
2022/04/13 08:21:41;;;;;;;14.03;9.10;;;15.50;56.60;;;;;;5095345;28;20469;-64
2022/04/13 08:24:08;;;;;;;14.03;9.77;;;15.70;56.60;;;;;;5096070;28;20801;-64
2022/04/13 08:26:38;;;;;;;17.40;11.00;;;15.60;56.00;;;;;;5095469;28;20982;-63
2022/04/13 08:29:05;;;;;;;10.30;8.90;;;15.60;56.00;;;;;;5095651;28;20469;-63
2022/04/13 08:31:32;;;;;;;14.03;9.57;;;15.70;56.20;;;;;;5094915;28;20476;-64
2022/04/13 08:34:00;;;;;;;10.70;9.30;;;15.80;56.20;;;;;;5095818;28;20967;-64
2022/04/13 08:36:27;;;;;;;15.00;10.40;;;16.00;56.10;;;;;;5095120;28;20461;-64
2022/04/13 08:38:54;;;;;;;12.17;9.13;;;16.10;56.00;;;;;;5095695;28;20461;-64
2022/04/13 08:41:31;;;;;;;11.13;8.67;;;16.20;55.80;;;;;;5095299;28;20469;-64
2022/04/13 08:44:02;;;;;;;11.97;9.47;;;16.40;55.80;;;;;;5095511;28;20780;-64
2022/04/13 08:46:30;;;;;;;10.30;9.20;;;16.40;55.50;;;;;;5094932;28;20461;-64
2022/04/13 08:48:57;;;;;;;15.03;8.10;;;16.40;55.00;;;;;;5095589;28;20469;-64
2022/04/13 08:51:27;;;;;;;10.90;9.73;;;16.50;54.90;;;;;;5094728;28;20474;-63
2022/04/13 08:54:03;;;;;;;11.97;9.20;;;16.60;55.10;;;;;;5095295;28;20500;-64
2022/04/13 08:56:35;;;;;;;13.40;9.87;;;16.50;54.70;;;;;;5094566;28;20462;-64
2022/04/13 08:59:09;;;;;;;13.03;9.80;;;16.50;54.90;;;;;;5095299;28;20461;-64
2022/04/13 09:01:55;;;;;;;13.13;10.43;;;16.50;54.90;;;;;;5094487;28;20468;-64
2022/04/13 09:04:28;;;;;;;15.03;9.00;;;16.50;55.00;;;;;;5094686;28;20470;-64
2022/04/13 09:06:59;;;;;;;12.17;9.80;;;16.60;55.00;;;;;;5094950;28;20959;-65
2022/04/13 09:09:32;;;;;;;14.13;10.20;;;16.60;55.00;;;;;;5094571;28;20549;-65
2022/04/13 09:12:00;;;;;;;9.27;8.33;;;16.60;55.10;;;;;;5094813;28;20462;-64
2022/04/13 09:14:28;;;;;;;13.70;9.43;;;16.70;55.00;;;;;;5094536;28;20473;-64
2022/04/13 09:16:56;;;;;;;15.43;10.57;;;16.70;54.70;;;;;;5094662;28;20476;-64
2022/04/13 09:19:25;;;;;;;12.23;8.60;;;16.90;54.80;;;;;;5094557;28;20466;-64
2022/04/13 09:21:53;;;;;;;13.47;8.67;;;16.90;54.70;;;;;;5094537;28;20491;-64
2022/04/13 09:24:21;;;;;;;14.17;10.80;;;17.10;54.80;;;;;;5094677;28;20463;-64
2022/04/13 09:26:48;;;;;;;11.80;9.80;;;17.10;54.50;;;;;;5094446;28;21099;-63
2022/04/13 09:29:15;;;;;;;13.03;9.33;;;17.10;54.40;;;;;;5094307;28;20477;-65
2022/04/13 09:31:42;;;;;;;14.83;9.53;;;17.10;54.40;;;;;;5093857;28;21019;-65
2022/04/13 09:34:09;;;;;;;11.73;9.93;;;17.10;54.20;;;;;;5094554;28;20479;-65
2022/04/13 09:36:37;;;;;;;13.30;9.40;;;17.10;54.70;;;;;;5094067;28;21020;-65
2022/04/13 09:39:04;;;;;;;12.83;9.60;;;17.20;54.80;;;;;;5094509;28;20462;-64
2022/04/13 09:41:37;;;;;;;12.90;9.87;;;17.20;54.50;;;;;;5094066;28;20453;-63
2022/04/13 09:44:11;;;;;;;10.67;9.13;;;17.20;54.50;;;;;;5094335;28;20477;-64
2022/04/13 09:46:39;;;;;;;12.60;9.70;;;17.30;54.60;;;;;;5093811;28;20465;-64
2022/04/13 09:49:10;;;;;;;13.83;9.77;;;17.30;54.40;;;;;;5094445;28;20478;-65
2022/04/13 09:51:37;;;;;;;12.70;9.03;;;17.40;54.60;;;;;;5093606;28;20488;-63
2022/04/13 09:54:10;;;;;;;11.40;9.30;;;17.50;54.80;;;;;;5094264;28;20467;-63
2022/04/13 09:56:43;;;;;;;13.43;10.30;;;17.60;54.60;;;;;;5093516;28;20469;-63
2022/04/13 09:59:11;;;;;;;15.20;10.10;;;17.60;54.30;;;;;;5094197;28;20811;-64
2022/04/13 10:01:38;;;;;;;11.60;9.53;;;17.50;54.10;;;;;;5093529;28;20742;-64
2022/04/13 10:04:07;;;;;;;11.87;9.13;;;17.40;54.30;;;;;;5094009;28;20498;-64
2022/04/13 10:06:34;;;;;;;11.03;9.30;;;17.50;54.50;;;;;;5093399;28;20469;-64
2022/04/13 10:09:02;;;;;;;15.63;9.80;;;17.60;54.50;;;;;;5094004;28;20463;-64
2022/04/13 10:11:30;;;;;;;12.90;9.60;;;17.50;54.10;;;;;;5093330;28;20521;-64
2022/04/13 10:14:01;;;;;;;12.73;10.10;;;17.60;54.20;;;;;;5093785;28;20465;-64
2022/04/13 10:16:32;;;;;;;11.00;9.77;;;17.70;54.40;;;;;;5093146;28;21024;-64
2022/04/13 10:19:01;;;;;;;11.20;9.80;;;17.70;54.00;;;;;;5093485;28;20472;-64
2022/04/13 10:21:35;;;;;;;12.87;8.97;;;17.80;54.10;;;;;;5093172;28;20477;-64
2022/04/13 10:24:02;;;;;;;12.80;10.77;;;17.80;54.20;;;;;;5093554;28;20456;-64
2022/04/13 10:26:29;;;;;;;30.63;9.77;;;17.90;54.10;;;;;;5092832;28;20461;-64
2022/04/13 10:28:58;;;;;;;9.70;8.80;;;17.90;54.10;;;;;;5093501;28;20460;-64
2022/04/13 10:31:24;;;;;;;10.60;9.00;;;18.00;53.80;;;;;;5093244;28;20839;-64
2022/04/13 10:33:52;;;;;;;12.57;9.53;;;18.10;54.00;;;;;;5092916;28;20459;-64
2022/04/13 10:36:22;;;;;;;10.83;8.77;;;18.20;54.10;;;;;;5093498;28;20547;-65
2022/04/13 10:38:49;;;;;;;11.40;8.40;;;18.30;53.90;;;;;;5092923;28;20481;-65
2022/04/13 10:41:17;;;;;;;11.17;9.57;;;18.40;53.80;;;;;;5092665;28;20483;-65
2022/04/13 10:43:49;;;;;;;10.63;9.53;;;18.40;53.50;;;;;;5092892;28;20550;-65
2022/04/13 10:46:19;;;;;;;11.23;8.87;;;18.60;53.60;;;;;;5093305;28;20472;-64
2022/04/13 10:48:48;;;;;;;13.33;9.37;;;18.60;53.50;;;;;;5092812;28;20469;-64
2022/04/13 10:51:21;;;;;;;11.93;10.00;;;18.70;53.40;;;;;;5093302;28;20473;-65
2022/04/13 10:53:53;;;;;;;12.40;9.20;;;18.80;53.50;;;;;;5092859;28;20465;-64
2022/04/13 10:56:22;;;;;;;16.43;10.33;;;18.80;53.30;;;;;;5092970;28;20465;-63
2022/04/13 10:58:59;;;;;;;11.80;9.27;;;18.90;53.30;;;;;;5092314;28;20522;-64
2022/04/13 11:01:32;;;;;;;10.77;8.73;;;19.00;53.40;;;;;;5092841;28;20967;-64
2022/04/13 11:04:00;;;;;;;11.33;9.67;;;19.20;53.60;;;;;;5092903;28;20472;-64
2022/04/13 11:06:28;;;;;;;12.63;9.20;;;19.10;53.00;;;;;;5092697;28;20958;-64
2022/04/13 11:09:01;;;;;;;9.70;8.70;;;19.10;53.20;;;;;;5092556;28;20465;-63
2022/04/13 11:11:31;;;;;;;12.23;8.10;;;19.20;53.20;;;;;;5092853;28;20493;-64
2022/04/13 11:13:58;;;;;;;9.30;8.30;;;19.30;53.40;;;;;;5092483;28;20449;-64
2022/04/13 11:16:27;;;;;;;16.03;8.97;;;19.30;53.10;;;;;;5092846;28;20548;-64
2022/04/13 11:19:21;;;;;;;12.00;9.23;;;19.40;52.70;;;;;;5092332;28;20476;-64
2022/04/13 11:22:11;;;;;;;14.17;9.67;;;19.40;52.90;;;;;;5092425;28;20542;-64
2022/04/13 11:24:40;;;;;;;10.70;9.00;;;19.40;53.00;;;;;;5072176;28;20523;-64
2022/04/13 11:27:08;;;;;;;14.47;8.90;;;19.50;53.30;;;;;;5078780;28;20488;-64
2022/04/13 11:29:36;;;;;;;11.27;8.43;;;19.60;52.90;;;;;;5071794;28;20458;-63
2022/04/13 11:32:10;;;;;;;17.27;9.33;;;19.80;52.90;;;;;;5079049;28;20477;-64
2022/04/13 11:34:42;;;;;;;17.33;9.43;;;19.70;52.80;;;;;;5092006;28;20457;-64
2022/04/13 11:37:11;;;;;;;13.63;10.03;;;19.70;52.90;;;;;;5091032;28;20461;-63
2022/04/13 11:39:51;;;;;;;8.93;7.53;;;19.70;52.90;;;;;;5090818;28;20991;-64
2022/04/13 11:42:53;;;;;;;14.70;9.10;;;19.80;52.90;;;;;;5090546;28;20942;-65
2022/04/13 11:45:21;;;;;;;14.60;9.70;;;19.80;52.40;;;;;;5090544;28;20461;-64
2022/04/13 11:47:58;;;;;;;9.50;8.50;;;19.80;52.00;;;;;;5090803;28;20481;-64
2022/04/13 11:50:27;;;;;;;14.40;9.23;;;19.80;52.20;;;;;;5089831;28;20445;-65
2022/04/13 11:52:56;;;;;;;10.40;8.10;;;19.80;51.90;;;;;;5094578;28;20476;-65
2022/04/13 11:55:25;;;;;;;8.80;7.73;;;19.80;51.90;;;;;;5096060;28;20469;-63
2022/04/13 11:58:21;;;;;;;9.67;7.93;;;19.90;52.30;;;;;;5096212;28;20477;-65
2022/04/13 12:00:54;;;;;;;9.00;8.00;;;19.90;51.80;;;;;;5095801;28;20949;-65
2022/04/13 12:03:22;;;;;;;15.47;7.83;;;19.90;51.70;;;;;;5096464;28;20466;-63
2022/04/13 12:05:53;;;;;;;8.93;7.63;;;20.00;51.90;;;;;;5095886;28;20465;-64
2022/04/13 12:08:21;;;;;;;27.00;8.30;;;20.00;51.80;;;;;;5077393;28;20466;-64
2022/04/13 12:10:50;;;;;;;10.40;7.30;;;20.10;51.90;;;;;;5075484;28;20486;-64
2022/04/13 12:13:17;;;;;;;14.73;7.40;;;20.10;51.50;;;;;;5075924;28;20462;-64
2022/04/13 12:15:46;;;;;;;11.50;7.30;;;20.20;51.40;;;;;;5090755;28;20461;-64
2022/04/13 12:18:14;;;;;;;8.80;7.17;;;20.20;51.00;;;;;;5095942;28;20466;-63
2022/04/13 12:20:41;;;;;;;8.50;6.43;;;20.30;51.10;;;;;;5095730;28;20480;-64
2022/04/13 12:23:20;;;;;;;9.60;7.30;;;20.30;51.10;;;;;;5075629;28;20459;-63
2022/04/13 12:25:49;;;;;;;12.10;8.13;;;20.40;51.50;;;;;;5081675;28;20468;-64
2022/04/13 12:28:18;;;;;;;9.07;7.80;;;20.50;51.60;;;;;;5096265;28;20874;-63
2022/04/13 12:30:55;;;;;;;6.93;5.50;;;20.50;51.30;;;;;;5095274;28;20471;-65
2022/04/13 12:33:25;;;;;;;13.40;6.47;;;20.70;51.10;;;;;;5095649;28;20473;-65
2022/04/13 12:35:54;;;;;;;20.93;7.33;;;20.80;50.80;;;;;;5095406;28;20764;-64
2022/04/13 12:38:31;;;;;;;7.60;6.13;;;20.80;49.90;;;;;;5095918;28;20459;-64
2022/04/13 12:41:09;;;;;;;14.17;7.10;;;20.80;49.50;;;;;;5095136;28;20499;-64
2022/04/13 12:43:37;;;;;;;13.27;6.93;;;20.90;49.70;;;;;;5095581;28;21003;-64